Time;durP1;ratioP1;P1;durP2;ratioP2;P2;SDS_P1;SDS_P2;PMS_P1;PMS_P2;Temp;Humidity;BMP_temperature;BMP_pressure;BME280_temperature;BME280_humidity;BME280_pressure;Samples;Min_cycle;Max_cycle;Signal;HPM_P1;HPM_P2
2023/07/18 00:02:00;;;;;;;4.43;2.00;;;14.50;99.90;;;;;;4997518;28;20269;-94
2023/07/18 00:04:28;;;;;;;9.73;2.50;;;14.50;99.90;;;;;;4997087;28;20323;-92
2023/07/18 00:06:54;;;;;;;4.00;2.17;;;14.50;99.90;;;;;;4997747;28;20258;-93
2023/07/18 00:09:21;;;;;;;5.45;2.13;;;14.60;99.90;;;;;;5409961;23;20227;-93
2023/07/18 00:11:47;;;;;;;6.97;2.33;;;14.60;99.90;;;;;;4993270;28;20199;-92
2023/07/18 00:14:15;;;;;;;5.45;2.15;;;14.50;99.90;;;;;;4993250;28;20168;-92
2023/07/18 00:16:41;;;;;;;4.90;2.30;;;14.50;99.90;;;;;;4992804;28;20164;-91
2023/07/18 00:19:11;;;;;;;6.47;2.47;;;14.40;99.90;;;;;;4992984;28;20179;-92
2023/07/18 00:21:39;;;;;;;6.03;2.10;;;14.40;99.90;;;;;;4992994;28;20174;-91
2023/07/18 00:24:06;;;;;;;5.32;2.10;;;14.40;99.90;;;;;;4993272;28;20228;-93
2023/07/18 00:26:31;;;;;;;4.00;2.25;;;14.40;99.90;;;;;;4993139;28;20176;-94
2023/07/18 00:28:57;;;;;;;5.20;2.50;;;14.30;99.90;;;;;;4993173;28;20255;-92
2023/07/18 00:31:23;;;;;;;6.50;2.28;;;14.40;99.90;;;;;;4992927;28;20709;-92
2023/07/18 00:33:48;;;;;;;6.85;2.58;;;14.40;99.90;;;;;;4993036;28;20175;-92
2023/07/18 00:36:14;;;;;;;21.38;2.60;;;14.30;99.90;;;;;;4992993;28;20250;-93
2023/07/18 00:38:40;;;;;;;8.43;2.58;;;14.20;99.90;;;;;;4992972;28;20226;-92
2023/07/18 00:41:08;;;;;;;7.97;2.88;;;14.20;99.90;;;;;;4992973;28;20172;-91
2023/07/18 00:43:34;;;;;;;7.53;2.72;;;14.30;99.90;;;;;;4993008;28;20180;-93
2023/07/18 00:46:01;;;;;;;9.57;2.20;;;14.20;99.90;;;;;;4992501;28;20235;-92
2023/07/18 00:48:34;;;;;;;5.75;2.17;;;14.20;99.90;;;;;;4992896;28;20176;-93
2023/07/18 00:51:04;;;;;;;6.05;2.65;;;14.20;99.90;;;;;;4992724;28;20257;-92
2023/07/18 00:53:32;;;;;;;8.50;2.47;;;14.30;99.90;;;;;;4992778;28;20172;-91
2023/07/18 00:55:58;;;;;;;12.38;2.47;;;14.20;99.90;;;;;;4992967;28;20203;-92
2023/07/18 00:58:24;;;;;;;5.90;2.60;;;14.20;99.90;;;;;;4992977;28;20616;-93
2023/07/18 01:00:50;;;;;;;5.13;2.53;;;14.20;99.90;;;;;;4993269;28;20683;-93
2023/07/18 01:03:17;;;;;;;14.73;3.30;;;14.20;99.90;;;;;;4993330;28;20175;-92
2023/07/18 01:05:43;;;;;;;6.97;2.92;;;14.20;99.90;;;;;;4993167;28;20199;-92
2023/07/18 01:08:09;;;;;;;6.32;2.50;;;14.20;99.90;;;;;;4993249;28;20168;-92
2023/07/18 01:10:37;;;;;;;9.55;2.88;;;14.20;99.90;;;;;;4992580;28;20223;-93
2023/07/18 01:13:03;;;;;;;9.63;3.22;;;14.20;99.90;;;;;;4993002;28;20168;-92
2023/07/18 01:15:33;;;;;;;8.60;2.63;;;14.10;99.90;;;;;;4992987;28;20192;-92
2023/07/18 01:18:04;;;;;;;10.18;3.03;;;14.10;99.90;;;;;;4993603;28;20190;-92
2023/07/18 01:20:31;;;;;;;10.45;2.70;;;14.10;99.90;;;;;;4996257;28;20172;-92
2023/07/18 01:23:01;;;;;;;9.05;2.90;;;14.00;99.90;;;;;;4996397;28;20183;-92
2023/07/18 01:25:27;;;;;;;10.18;2.78;;;14.10;99.90;;;;;;4996531;28;20195;-92
2023/07/18 01:27:55;;;;;;;10.95;3.72;;;14.00;99.90;;;;;;4996464;28;20554;-91
2023/07/18 01:30:24;;;;;;;9.73;3.17;;;13.90;99.90;;;;;;4996750;28;20172;-90
2023/07/18 01:32:52;;;;;;;8.38;2.90;;;13.90;99.90;;;;;;4996358;28;20192;-92
2023/07/18 01:35:19;;;;;;;7.88;3.03;;;14.00;99.90;;;;;;4996115;28;20223;-91
2023/07/18 01:37:46;;;;;;;8.65;3.42;;;13.90;99.90;;;;;;4996188;28;20255;-92
2023/07/18 01:40:15;;;;;;;9.43;3.25;;;13.90;99.90;;;;;;4996203;28;20187;-91
2023/07/18 01:42:45;;;;;;;8.02;2.80;;;13.90;99.90;;;;;;4996198;28;20164;-93
2023/07/18 01:45:11;;;;;;;12.30;3.28;;;13.90;99.90;;;;;;4995886;28;20224;-92
2023/07/18 01:47:38;;;;;;;12.82;3.72;;;13.90;99.90;;;;;;4995925;28;20556;-92
2023/07/18 01:50:05;;;;;;;9.20;3.30;;;13.90;99.90;;;;;;4995848;28;20172;-90
2023/07/18 01:52:32;;;;;;;9.40;3.10;;;13.90;99.90;;;;;;4995986;28;20195;-90
2023/07/18 01:54:59;;;;;;;6.47;3.17;;;13.90;99.90;;;;;;4995913;28;20206;-91
2023/07/18 01:57:30;;;;;;;5.35;2.97;;;13.90;99.90;;;;;;4995872;28;20168;-91
2023/07/18 01:59:57;;;;;;;10.07;3.13;;;13.80;99.90;;;;;;4995639;28;20172;-92
2023/07/18 02:02:23;;;;;;;9.30;3.35;;;13.80;99.90;;;;;;4995560;28;20172;-92
2023/07/18 02:04:49;;;;;;;9.15;3.15;;;13.80;99.90;;;;;;4995260;28;20632;-93
2023/07/18 02:07:16;;;;;;;12.43;3.00;;;13.90;99.90;;;;;;4995530;28;20259;-92
2023/07/18 02:09:41;;;;;;;9.38;3.08;;;13.80;99.90;;;;;;4995567;28;20655;-92
2023/07/18 02:12:08;;;;;;;13.40;3.10;;;13.70;99.90;;;;;;4995339;28;20231;-92
2023/07/18 02:14:36;;;;;;;12.00;3.58;;;13.70;99.90;;;;;;4995017;28;20211;-92
2023/07/18 02:17:03;;;;;;;13.43;3.20;;;13.60;99.90;;;;;;4995258;28;20210;-92
2023/07/18 02:19:28;;;;;;;6.70;2.95;;;13.60;99.90;;;;;;4995334;28;20168;-93
2023/07/18 02:21:54;;;;;;;14.40;3.50;;;13.60;99.90;;;;;;4995015;28;20623;-93
2023/07/18 02:24:20;;;;;;;7.18;3.35;;;13.60;99.90;;;;;;4994882;28;20200;-94
2023/07/18 02:26:46;;;;;;;7.07;2.92;;;13.50;99.90;;;;;;4995086;28;20616;-92
2023/07/18 02:29:13;;;;;;;6.18;3.03;;;13.60;99.90;;;;;;4994450;28;20548;-92
2023/07/18 02:31:39;;;;;;;9.25;3.53;;;13.60;99.90;;;;;;4994450;28;20710;-93
2023/07/18 02:34:05;;;;;;;11.52;3.40;;;13.60;99.90;;;;;;4994604;28;20179;-92
2023/07/18 02:36:32;;;;;;;13.45;3.20;;;13.50;99.90;;;;;;4994662;28;20172;-94
2023/07/18 02:38:59;;;;;;;9.90;3.38;;;13.50;99.90;;;;;;4994832;28;20165;-92
2023/07/18 02:41:25;;;;;;;8.68;3.47;;;13.50;99.90;;;;;;4994735;28;20180;-93
2023/07/18 02:43:50;;;;;;;10.40;3.78;;;13.50;99.90;;;;;;4994932;28;20203;-93
2023/07/18 02:46:17;;;;;;;12.23;3.30;;;13.50;99.90;;;;;;4994477;28;20203;-93
2023/07/18 02:48:43;;;;;;;9.43;3.70;;;13.50;99.90;;;;;;4994754;28;20271;-92
2023/07/18 02:51:09;;;;;;;14.90;3.75;;;13.40;99.90;;;;;;4994449;28;20290;-92
2023/07/18 02:53:35;;;;;;;9.52;3.45;;;13.40;99.90;;;;;;4994557;28;20199;-92
2023/07/18 02:56:01;;;;;;;8.10;3.00;;;13.40;99.90;;;;;;4994253;28;20659;-91
2023/07/18 02:58:27;;;;;;;8.90;2.92;;;13.30;99.90;;;;;;4994502;28;20172;-91
2023/07/18 03:00:52;;;;;;;15.25;3.38;;;13.40;99.90;;;;;;4994489;28;20183;-91
2023/07/18 03:03:18;;;;;;;8.55;3.33;;;13.40;99.90;;;;;;4994514;28;20164;-92
2023/07/18 03:05:44;;;;;;;11.55;3.90;;;13.40;99.90;;;;;;4994112;28;20199;-94
2023/07/18 03:08:10;;;;;;;9.98;3.45;;;13.30;99.90;;;;;;4994568;28;20650;-90
2023/07/18 03:10:37;;;;;;;9.32;3.75;;;13.30;99.90;;;;;;4993902;28;20263;-92
2023/07/18 03:13:03;;;;;;;7.45;3.15;;;13.30;99.90;;;;;;4994170;28;20183;-93
2023/07/18 03:15:29;;;;;;;12.02;2.90;;;13.40;99.90;;;;;;4993956;28;20202;-93
2023/07/18 03:17:56;;;;;;;7.68;3.30;;;13.40;99.90;;;;;;4994014;28;20651;-92
2023/07/18 03:20:23;;;;;;;12.57;3.55;;;13.40;99.90;;;;;;4994253;28;20258;-92
2023/07/18 03:22:50;;;;;;;8.77;3.40;;;13.40;99.90;;;;;;4993851;28;20203;-92
2023/07/18 03:25:17;;;;;;;7.20;3.28;;;13.40;99.90;;;;;;4994097;28;20746;-93
2023/07/18 03:27:44;;;;;;;15.32;3.92;;;13.40;99.90;;;;;;4977595;28;20253;-91
2023/07/18 03:30:12;;;;;;;13.25;4.32;;;13.40;99.90;;;;;;4993969;28;20179;-93
2023/07/18 03:32:39;;;;;;;13.00;3.38;;;13.40;99.90;;;;;;4993936;28;20570;-92
2023/07/18 03:35:06;;;;;;;13.80;3.92;;;13.40;99.90;;;;;;4993328;28;20290;-92
2023/07/18 03:37:33;;;;;;;10.95;3.83;;;13.40;99.90;;;;;;4993854;28;20184;-91
2023/07/18 03:39:59;;;;;;;9.95;3.92;;;13.40;99.90;;;;;;4994215;28;20163;-90
2023/07/18 03:42:25;;;;;;;9.65;3.88;;;13.40;99.90;;;;;;4993590;28;20231;-94
2023/07/18 03:44:51;;;;;;;11.88;3.58;;;13.40;99.90;;;;;;4993694;28;20208;-93
2023/07/18 03:47:17;;;;;;;6.97;3.50;;;13.40;99.90;;;;;;4993363;28;20524;-92
2023/07/18 03:49:42;;;;;;;10.38;3.17;;;13.40;99.90;;;;;;4993761;28;20176;-90
2023/07/18 03:52:08;;;;;;;9.65;3.45;;;13.40;99.90;;;;;;4993329;28;20196;-93
2023/07/18 03:54:34;;;;;;;8.77;3.35;;;13.40;99.90;;;;;;4993294;28;20227;-91
2023/07/18 03:57:00;;;;;;;8.07;3.80;;;13.40;99.90;;;;;;4994241;28;20620;-92
2023/07/18 03:59:26;;;;;;;11.07;3.65;;;13.40;99.90;;;;;;4993489;28;20164;-92
2023/07/18 04:01:54;;;;;;;10.52;4.00;;;13.40;99.90;;;;;;4993834;28;20175;-92
2023/07/18 04:04:20;;;;;;;7.22;3.47;;;13.50;99.90;;;;;;4993742;28;20686;-90
2023/07/18 04:06:46;;;;;;;7.10;3.75;;;13.50;99.90;;;;;;4993626;28;20183;-91
2023/07/18 04:09:11;;;;;;;8.57;3.55;;;13.50;99.90;;;;;;4977239;28;20263;-91
2023/07/18 04:11:43;;;;;;;10.75;3.75;;;13.50;99.90;;;;;;4993080;28;20220;-92
2023/07/18 04:14:09;;;;;;;10.73;3.50;;;13.50;99.90;;;;;;4993336;28;20644;-92
2023/07/18 04:16:35;;;;;;;10.20;3.40;;;13.50;99.90;;;;;;4993179;28;20172;-91
2023/07/18 04:19:01;;;;;;;7.43;3.22;;;13.60;99.90;;;;;;4993002;28;20175;-91
2023/07/18 04:21:27;;;;;;;10.55;3.83;;;13.70;99.90;;;;;;4992882;28;20176;-91
2023/07/18 04:23:53;;;;;;;13.50;4.20;;;13.70;99.90;;;;;;4992713;28;20227;-92
2023/07/18 04:26:18;;;;;;;9.05;3.75;;;13.80;99.90;;;;;;4992805;28;20204;-90
2023/07/18 04:28:44;;;;;;;11.23;3.45;;;13.80;99.90;;;;;;4992792;28;20635;-93
2023/07/18 04:31:11;;;;;;;10.70;3.15;;;13.80;99.90;;;;;;4993405;28;20204;-95
2023/07/18 04:33:37;;;;;;;9.38;3.90;;;14.00;99.90;;;;;;4993086;28;20168;-91
2023/07/18 04:36:05;;;;;;;20.52;3.78;;;13.90;99.90;;;;;;4992681;28;20200;-90
2023/07/18 04:38:31;;;;;;;9.18;3.53;;;14.00;99.90;;;;;;4993270;28;20576;-94
2023/07/18 04:40:58;;;;;;;7.97;3.00;;;14.00;99.90;;;;;;4992758;28;20698;-89
2023/07/18 04:43:24;;;;;;;9.75;3.03;;;14.00;99.90;;;;;;4976497;28;20181;-90
2023/07/18 04:45:50;;;;;;;14.75;4.18;;;14.10;99.90;;;;;;4993435;28;20273;-92
2023/07/18 04:48:17;;;;;;;11.20;3.75;;;14.10;99.90;;;;;;4992858;28;20266;-91
2023/07/18 04:50:45;;;;;;;9.25;3.80;;;14.20;99.90;;;;;;4992564;28;20164;-92
2023/07/18 04:53:12;;;;;;;11.50;3.97;;;14.20;99.90;;;;;;4993503;28;20203;-89
2023/07/18 04:55:38;;;;;;;7.70;3.40;;;14.20;99.90;;;;;;4996583;28;20204;-91
2023/07/18 04:58:06;;;;;;;12.18;3.50;;;14.20;99.90;;;;;;4996326;28;20183;-92
2023/07/18 05:00:32;;;;;;;8.20;3.72;;;14.20;99.90;;;;;;4996467;28;20259;-91
2023/07/18 05:03:00;;;;;;;8.60;3.42;;;14.20;99.90;;;;;;4996381;28;20172;-90
2023/07/18 05:05:27;;;;;;;9.57;3.75;;;14.30;99.90;;;;;;4996219;28;20203;-92
2023/07/18 05:08:00;;;;;;;8.93;3.63;;;14.40;99.90;;;;;;4996412;28;20171;-91
2023/07/18 05:10:26;;;;;;;11.27;3.53;;;14.50;99.90;;;;;;4996123;28;20655;-93
2023/07/18 05:12:54;;;;;;;6.95;3.05;;;14.60;99.90;;;;;;4995997;28;20286;-92
2023/07/18 05:15:20;;;;;;;10.20;3.80;;;14.70;99.90;;;;;;4996051;28;20199;-93
2023/07/18 05:17:46;;;;;;;6.85;3.60;;;14.70;99.90;;;;;;4996095;28;20167;-92
2023/07/18 05:20:12;;;;;;;8.25;3.60;;;14.70;99.90;;;;;;4995928;28;20255;-92
2023/07/18 05:22:42;;;;;;;7.97;3.60;;;14.80;99.90;;;;;;4996065;28;20191;-90
2023/07/18 05:25:10;;;;;;;7.28;3.40;;;14.80;99.90;;;;;;4995854;28;20196;-92
2023/07/18 05:27:36;;;;;;;7.50;3.47;;;14.90;99.90;;;;;;4996043;28;20222;-90
2023/07/18 05:30:06;;;;;;;15.20;4.05;;;14.90;99.90;;;;;;4995857;28;20203;-91
2023/07/18 05:32:33;;;;;;;7.70;3.38;;;15.00;99.90;;;;;;4995852;28;20204;-93
2023/07/18 05:35:02;;;;;;;11.75;4.10;;;15.00;99.90;;;;;;4995860;28;20220;-90
2023/07/18 05:37:29;;;;;;;8.32;3.40;;;15.20;99.90;;;;;;4996108;28;20175;-93
2023/07/18 05:39:55;;;;;;;7.75;3.60;;;15.30;99.90;;;;;;4996292;28;20168;-91
2023/07/18 05:42:21;;;;;;;8.38;3.90;;;15.30;99.90;;;;;;4996905;28;20168;-91
2023/07/18 05:44:48;;;;;;;9.82;3.50;;;15.30;99.90;;;;;;4996312;28;20211;-92
2023/07/18 05:47:14;;;;;;;6.38;3.60;;;15.20;99.90;;;;;;4996703;28;20164;-93
2023/07/18 05:49:39;;;;;;;7.07;3.58;;;15.20;99.90;;;;;;4996283;28;20259;-94
2023/07/18 05:52:05;;;;;;;6.03;3.35;;;15.20;99.90;;;;;;4981739;28;20200;-89
2023/07/18 05:54:31;;;;;;;8.13;3.78;;;15.20;99.90;;;;;;4996054;28;20202;-93
2023/07/18 05:57:00;;;;;;;10.00;3.78;;;15.20;99.90;;;;;;4995595;28;20257;-91
2023/07/18 05:59:27;;;;;;;6.75;3.30;;;15.20;99.90;;;;;;4995631;28;20172;-91
2023/07/18 06:01:53;;;;;;;7.57;2.97;;;15.30;99.90;;;;;;4994574;28;20227;-92
2023/07/18 06:04:18;;;;;;;10.80;4.38;;;15.40;99.90;;;;;;4994746;28;20203;-94
2023/07/18 06:06:44;;;;;;;9.50;3.92;;;15.40;99.90;;;;;;4995376;28;20185;-92
2023/07/18 06:09:11;;;;;;;10.27;3.55;;;15.40;99.90;;;;;;4994982;28;20223;-91
2023/07/18 06:11:37;;;;;;;10.30;3.70;;;15.40;99.90;;;;;;4995295;28;20203;-92
2023/07/18 06:14:05;;;;;;;8.57;3.45;;;15.40;99.90;;;;;;4994966;28;20660;-90
2023/07/18 06:16:31;;;;;;;7.28;4.07;;;15.50;99.90;;;;;;4995199;28;20168;-92
2023/07/18 06:18:57;;;;;;;8.43;3.90;;;15.50;99.90;;;;;;4995337;28;20239;-92
2023/07/18 06:21:26;;;;;;;8.80;4.07;;;15.50;99.90;;;;;;4995743;28;20188;-89
2023/07/18 06:23:55;;;;;;;13.90;4.65;;;15.60;99.90;;;;;;4995759;28;20270;-91
2023/07/18 06:26:22;;;;;;;11.23;4.13;;;15.60;99.90;;;;;;4995285;28;20250;-91
2023/07/18 06:28:49;;;;;;;11.27;3.92;;;15.70;99.90;;;;;;4995918;28;20176;-92
2023/07/18 06:31:15;;;;;;;9.93;4.53;;;15.80;99.90;;;;;;4995595;28;20262;-91
2023/07/18 06:33:42;;;;;;;7.82;3.58;;;15.80;99.90;;;;;;4996307;28;20168;-91
2023/07/18 06:36:08;;;;;;;13.18;4.05;;;15.90;99.90;;;;;;4996546;28;20287;-91
2023/07/18 06:38:33;;;;;;;9.90;4.03;;;16.00;99.90;;;;;;4996310;28;20196;-90
2023/07/18 06:40:59;;;;;;;8.70;4.10;;;16.10;99.90;;;;;;4995287;28;20172;-91
2023/07/18 06:43:27;;;;;;;7.57;3.38;;;16.10;99.90;;;;;;4995398;28;20543;-90
2023/07/18 06:45:53;;;;;;;7.78;3.63;;;16.20;99.90;;;;;;4995289;28;20192;-90
2023/07/18 06:48:19;;;;;;;8.38;3.83;;;16.30;99.90;;;;;;4995218;28;20180;-93
2023/07/18 06:50:49;;;;;;;12.15;4.05;;;16.40;99.90;;;;;;4997431;28;20179;-91
2023/07/18 06:53:19;;;;;;;7.53;3.25;;;16.60;99.90;;;;;;4995324;28;20663;-91
2023/07/18 06:55:46;;;;;;;5.38;3.15;;;16.80;99.90;;;;;;4994805;28;20206;-91
2023/07/18 06:58:12;;;;;;;6.75;4.18;;;16.90;99.90;;;;;;4994804;28;20172;-90
2023/07/18 07:00:39;;;;;;;7.97;3.90;;;17.00;99.90;;;;;;4994469;28;20179;-91
2023/07/18 07:03:05;;;;;;;7.07;3.60;;;17.10;99.90;;;;;;4994991;28;20270;-92
2023/07/18 07:05:38;;;;;;;8.27;3.38;;;17.20;99.90;;;;;;4995064;28;20553;-91
2023/07/18 07:08:10;;;;;;;12.13;2.88;;;17.30;99.90;;;;;;4994518;28;20211;-89
2023/07/18 07:10:40;;;;;;;8.93;3.60;;;17.50;99.90;;;;;;4994409;28;20227;-91
2023/07/18 07:13:08;;;;;;;7.32;3.22;;;17.80;99.90;;;;;;4996240;28;20203;-91
2023/07/18 07:15:34;;;;;;;6.57;2.78;;;17.90;99.90;;;;;;4996618;28;20221;-92
2023/07/18 07:18:00;;;;;;;7.63;2.97;;;18.10;99.90;;;;;;4994103;28;20168;-92
2023/07/18 07:20:33;;;;;;;13.27;3.55;;;18.30;99.90;;;;;;4993938;28;20214;-90
2023/07/18 07:23:00;;;;;;;7.10;3.30;;;18.50;99.90;;;;;;4993892;28;20657;-92
2023/07/18 07:25:30;;;;;;;6.38;2.35;;;18.60;99.90;;;;;;4994805;28;20270;-91
2023/07/18 07:27:56;;;;;;;4.88;2.70;;;18.70;99.90;;;;;;4993917;28;20632;-93
2023/07/18 07:30:22;;;;;;;7.15;2.72;;;18.90;99.90;;;;;;4993403;28;20192;-92
2023/07/18 07:32:52;;;;;;;6.20;2.40;;;18.90;99.90;;;;;;4993666;28;20203;-92
2023/07/18 07:35:19;;;;;;;7.07;2.60;;;19.00;99.90;;;;;;4993575;28;20199;-92
2023/07/18 07:37:51;;;;;;;5.45;2.67;;;19.10;99.90;;;;;;4993712;28;20259;-93
2023/07/18 07:40:18;;;;;;;6.63;2.63;;;19.10;99.90;;;;;;4993889;28;20211;-93
2023/07/18 07:42:46;;;;;;;9.68;2.65;;;19.30;99.90;;;;;;4994108;28;20223;-95
2023/07/18 07:45:13;;;;;;;5.45;2.35;;;19.30;99.90;;;;;;4993846;28;20572;-92
2023/07/18 07:47:40;;;;;;;8.88;2.10;;;19.40;99.90;;;;;;4993881;28;20254;-92
2023/07/18 07:50:07;;;;;;;4.63;2.00;;;19.50;99.90;;;;;;4996066;28;20270;-93
2023/07/18 07:52:34;;;;;;;6.38;1.88;;;19.60;99.90;;;;;;4994487;28;20208;-91
2023/07/18 07:55:01;;;;;;;6.20;2.28;;;19.60;99.90;;;;;;4994066;28;20195;-94
2023/07/18 07:57:26;;;;;;;5.53;1.80;;;19.80;99.90;;;;;;5010470;28;20168;-92
2023/07/18 07:59:53;;;;;;;4.70;1.60;;;19.70;99.90;;;;;;4994594;28;20538;-93
2023/07/18 08:02:19;;;;;;;6.88;1.98;;;19.70;99.90;;;;;;4994108;28;20218;-93
2023/07/18 08:04:46;;;;;;;6.50;1.88;;;19.80;99.90;;;;;;4993592;28;20243;-91
2023/07/18 08:07:13;;;;;;;7.47;2.33;;;19.90;99.90;;;;;;5010293;28;20175;-91
2023/07/18 08:09:39;;;;;;;7.97;1.90;;;20.00;99.90;;;;;;5009539;28;20239;-91
2023/07/18 08:12:06;;;;;;;5.47;1.92;;;20.10;99.90;;;;;;4993304;28;20544;-91
2023/07/18 08:14:32;;;;;;;5.25;1.90;;;20.10;99.90;;;;;;4993005;28;20659;-91
2023/07/18 08:16:59;;;;;;;7.88;2.05;;;20.10;99.90;;;;;;4993037;28;20227;-93
2023/07/18 08:19:26;;;;;;;3.80;1.42;;;20.10;99.90;;;;;;4992984;28;20176;-92
2023/07/18 08:21:52;;;;;;;4.18;1.85;;;20.20;99.90;;;;;;4992880;28;20259;-92
2023/07/18 08:24:17;;;;;;;7.93;1.90;;;20.30;99.90;;;;;;4976714;28;20238;-91
2023/07/18 08:26:43;;;;;;;5.90;1.65;;;20.40;99.90;;;;;;4993161;28;20172;-91
2023/07/18 08:29:09;;;;;;;5.80;2.08;;;20.50;99.90;;;;;;5000217;28;20259;-93
2023/07/18 08:31:35;;;;;;;5.95;1.90;;;20.60;99.90;;;;;;4998308;28;20200;-93
2023/07/18 08:34:01;;;;;;;4.60;1.70;;;20.70;99.90;;;;;;4997097;28;20164;-92
2023/07/18 08:36:27;;;;;;;4.45;1.75;;;20.70;99.90;;;;;;4996917;28;20175;-91
2023/07/18 08:38:53;;;;;;;3.92;1.45;;;20.70;99.90;;;;;;4997109;28;20168;-90
2023/07/18 08:41:20;;;;;;;6.65;1.75;;;20.70;99.90;;;;;;4997577;28;20187;-92
2023/07/18 08:43:49;;;;;;;4.00;1.60;;;20.80;99.90;;;;;;4997746;28;20179;-92
2023/07/18 08:46:16;;;;;;;3.35;1.10;;;20.80;99.90;;;;;;4997432;28;20203;-91
2023/07/18 08:48:43;;;;;;;3.13;1.33;;;20.90;99.90;;;;;;4996763;28;20195;-92
2023/07/18 08:51:11;;;;;;;4.30;1.58;;;20.90;99.90;;;;;;4997348;28;20164;-93
2023/07/18 08:53:41;;;;;;;3.22;1.30;;;21.10;99.90;;;;;;4996851;28;20160;-93
2023/07/18 08:56:11;;;;;;;5.85;1.75;;;21.20;99.90;;;;;;4996860;28;20210;-93
2023/07/18 08:58:37;;;;;;;5.43;1.52;;;21.10;99.90;;;;;;4996944;28;20164;-94
2023/07/18 09:01:08;;;;;;;3.55;1.10;;;21.20;99.90;;;;;;4996531;28;20168;-93
2023/07/18 09:03:35;;;;;;;4.18;1.50;;;21.30;99.90;;;;;;4996969;28;20251;-93
2023/07/18 09:06:15;;;;;;;4.38;1.50;;;21.40;99.90;;;;;;4996781;28;20295;-94
2023/07/18 09:08:44;;;;;;;5.03;1.42;;;21.50;99.90;;;;;;4996427;28;20251;-93
2023/07/18 09:11:14;;;;;;;3.80;1.70;;;21.50;99.90;;;;;;4996576;28;20172;-93
2023/07/18 09:13:42;;;;;;;5.13;1.75;;;21.50;99.90;;;;;;4996443;28;20632;-93
2023/07/18 09:16:20;;;;;;;5.57;1.27;;;21.50;99.90;;;;;;4996370;28;20203;-93
2023/07/18 09:18:55;;;;;;;3.25;1.15;;;21.70;99.90;;;;;;4996271;28;20167;-94
2023/07/18 09:21:23;;;;;;;5.70;1.60;;;21.60;99.90;;;;;;4996172;28;20179;-92
2023/07/18 09:23:50;;;;;;;3.42;1.33;;;21.70;99.90;;;;;;4996281;28;20172;-93
2023/07/18 09:26:21;;;;;;;2.88;1.30;;;21.70;99.90;;;;;;4996085;28;20200;-92
2023/07/18 09:28:47;;;;;;;4.90;1.25;;;21.70;99.90;;;;;;4996427;28;20176;-92
2023/07/18 09:31:17;;;;;;;5.40;1.58;;;21.70;99.90;;;;;;4995900;28;20200;-91
2023/07/18 09:33:44;;;;;;;5.68;1.50;;;21.70;99.90;;;;;;4995461;28;20639;-93
2023/07/18 09:36:21;;;;;;;2.53;1.35;;;21.80;99.90;;;;;;4995581;28;20202;-93
2023/07/18 09:38:49;;;;;;;2.47;1.25;;;21.80;99.90;;;;;;4995505;28;20603;-91
2023/07/18 09:41:22;;;;;;;5.45;1.20;;;21.80;99.80;;;;;;4995612;28;20262;-91
2023/07/18 09:43:48;;;;;;;5.00;1.23;;;21.70;99.00;;;;;;4995207;28;20266;-91
2023/07/18 09:46:16;;;;;;;5.60;1.45;;;21.50;99.90;;;;;;4995143;28;20207;-89
2023/07/18 09:48:44;;;;;;;4.85;1.40;;;21.50;99.90;;;;;;4987447;28;20688;-92
2023/07/18 09:51:20;;;;;;;3.22;1.40;;;21.60;99.90;;;;;;4975587;28;20172;-92
2023/07/18 09:53:47;;;;;;;4.97;1.35;;;21.60;99.90;;;;;;4975625;28;20172;-93
2023/07/18 09:56:16;;;;;;;2.10;1.15;;;21.70;99.80;;;;;;4991683;28;20684;-89
2023/07/18 09:58:44;;;;;;;3.88;1.50;;;21.80;99.90;;;;;;4975568;28;20172;-92
2023/07/18 10:01:12;;;;;;;2.85;1.30;;;21.90;99.90;;;;;;4992178;28;20177;-92
2023/07/18 10:03:41;;;;;;;3.10;1.20;;;22.00;99.70;;;;;;4976203;28;20256;-92
2023/07/18 10:06:12;;;;;;;3.40;1.20;;;21.80;99.90;;;;;;4974914;28;20207;-90
2023/07/18 10:08:40;;;;;;;6.40;1.35;;;21.80;99.90;;;;;;4973957;28;20177;-88
2023/07/18 10:11:11;;;;;;;3.38;1.10;;;22.00;99.80;;;;;;4974006;28;20176;-90
2023/07/18 10:13:44;;;;;;;4.50;1.33;;;22.30;99.30;;;;;;4973779;28;20542;-88
2023/07/18 10:16:12;;;;;;;4.20;1.00;;;22.30;98.60;;;;;;4975056;28;20197;-88
2023/07/18 10:19:18;;;;;;;2.78;1.05;;;22.40;98.20;;;;;;4973752;28;20165;-90
2023/07/18 10:21:46;;;;;;;2.85;1.00;;;22.60;99.70;;;;;;4973769;28;20176;-90
2023/07/18 10:24:21;;;;;;;4.50;1.35;;;22.80;98.30;;;;;;4973700;28;20172;-90
2023/07/18 10:26:58;;;;;;;4.13;1.35;;;22.90;98.50;;;;;;4973860;28;20179;-90
2023/07/18 10:29:28;;;;;;;2.10;1.00;;;22.90;95.30;;;;;;4973664;28;20183;-89
2023/07/18 10:31:54;;;;;;;4.40;1.20;;;22.90;97.20;;;;;;4973150;28;20259;-89
2023/07/18 10:34:19;;;;;;;5.30;1.50;;;23.00;99.30;;;;;;4973294;28;20684;-90
2023/07/18 10:37:00;;;;;;;2.30;1.13;;;23.10;98.50;;;;;;4973797;28;20180;-87
2023/07/18 10:39:49;;;;;;;3.45;1.02;;;23.20;97.00;;;;;;4973441;28;20185;-89
2023/07/18 10:42:20;;;;;;;3.83;1.30;;;23.30;97.40;;;;;;4973750;28;20277;-89
2023/07/18 10:44:47;;;;;;;2.25;1.25;;;23.40;97.00;;;;;;4973333;28;20208;-90
2023/07/18 10:47:18;;;;;;;7.07;1.50;;;23.50;98.40;;;;;;4973472;28;20204;-91
2023/07/18 10:49:45;;;;;;;1.48;1.02;;;23.50;96.40;;;;;;4989539;28;20222;-89
2023/07/18 10:52:15;;;;;;;4.90;1.33;;;23.50;96.90;;;;;;4992008;28;20282;-90
2023/07/18 10:54:56;;;;;;;3.38;1.33;;;23.60;97.10;;;;;;4992339;28;20204;-88
2023/07/18 10:57:32;;;;;;;1.88;0.93;;;23.70;97.10;;;;;;4992754;28;20174;-89
2023/07/18 11:00:00;;;;;;;3.65;1.15;;;23.60;95.50;;;;;;4994125;28;20174;-89
2023/07/18 11:02:36;;;;;;;1.88;1.08;;;23.40;95.70;;;;;;4992997;28;20175;-87
2023/07/18 11:05:12;;;;;;;1.60;1.00;;;23.20;97.40;;;;;;4992447;28;20286;-89
2023/07/18 11:07:48;;;;;;;3.85;1.20;;;23.30;95.70;;;;;;4992551;28;20203;-88
2023/07/18 11:10:14;;;;;;;3.72;1.05;;;23.00;95.20;;;;;;4992559;28;20227;-87
2023/07/18 11:12:41;;;;;;;2.85;0.88;;;22.90;96.90;;;;;;4992439;28;20231;-89
2023/07/18 11:15:09;;;;;;;3.20;1.33;;;23.00;97.20;;;;;;4992197;28;20204;-90
2023/07/18 11:17:35;;;;;;;2.00;1.40;;;23.00;97.40;;;;;;4992115;28;20172;-88
2023/07/18 11:20:03;;;;;;;3.30;1.17;;;23.00;97.10;;;;;;4991917;28;20600;-89
2023/07/18 11:22:29;;;;;;;1.58;0.95;;;22.80;95.60;;;;;;4993247;28;20165;-90
2023/07/18 11:24:56;;;;;;;2.47;0.98;;;22.80;97.50;;;;;;4992032;28;20295;-89
2023/07/18 11:27:29;;;;;;;3.65;1.20;;;22.90;97.30;;;;;;4992397;28;20196;-89
2023/07/18 11:30:08;;;;;;;2.20;1.00;;;22.90;97.60;;;;;;4992103;28;20183;-91
2023/07/18 11:32:41;;;;;;;2.28;1.00;;;22.90;95.10;;;;;;4991766;28;20203;-91
2023/07/18 11:35:18;;;;;;;3.88;1.20;;;23.00;95.80;;;;;;4991521;28;20204;-91
2023/07/18 11:37:46;;;;;;;2.28;1.05;;;23.00;97.50;;;;;;4991894;28;20172;-89
2023/07/18 11:40:25;;;;;;;3.42;1.33;;;23.00;96.10;;;;;;4975917;28;20212;-87
2023/07/18 11:43:00;;;;;;;2.17;1.00;;;22.80;97.50;;;;;;4991650;28;20179;-89
2023/07/18 11:45:30;;;;;;;2.17;0.95;;;22.90;98.90;;;;;;4991648;28;20199;-89
2023/07/18 11:47:57;;;;;;;2.20;1.00;;;23.30;97.60;;;;;;4991248;28;20194;-87
2023/07/18 11:50:27;;;;;;;2.60;1.00;;;23.60;95.00;;;;;;4991588;28;20280;-89
2023/07/18 11:52:54;;;;;;;5.93;1.30;;;24.10;95.00;;;;;;4991376;28;20622;-88
2023/07/18 11:55:22;;;;;;;3.55;0.90;;;24.30;95.90;;;;;;4991451;28;20575;-89
2023/07/18 11:57:48;;;;;;;3.10;1.10;;;24.60;95.00;;;;;;4991315;28;20176;-88
2023/07/18 12:00:18;;;;;;;2.65;0.98;;;24.50;94.10;;;;;;4992489;28;20223;-87
2023/07/18 12:02:44;;;;;;;5.20;1.13;;;24.20;94.00;;;;;;4991705;28;20183;-92
2023/07/18 12:05:13;;;;;;;1.98;1.00;;;24.10;95.10;;;;;;4991259;28;20286;-88
2023/07/18 12:07:39;;;;;;;3.42;1.38;;;24.30;96.20;;;;;;4992496;28;20164;-90
2023/07/18 12:10:06;;;;;;;2.40;0.95;;;24.40;93.70;;;;;;4992306;28;20657;-89
2023/07/18 12:12:33;;;;;;;1.83;0.90;;;24.50;93.90;;;;;;4991085;28;20211;-88
2023/07/18 12:15:01;;;;;;;2.35;0.90;;;24.50;93.00;;;;;;4991089;28;20290;-89
2023/07/18 12:17:27;;;;;;;4.35;1.00;;;24.40;92.10;;;;;;4992548;28;20620;-88
2023/07/18 12:19:53;;;;;;;2.85;1.02;;;24.40;93.60;;;;;;4991130;28;20252;-87
2023/07/18 12:22:18;;;;;;;1.92;1.05;;;24.40;93.20;;;;;;4992424;28;20636;-90
2023/07/18 12:24:44;;;;;;;6.05;0.93;;;24.20;94.40;;;;;;4990814;28;20266;-88
2023/07/18 12:27:12;;;;;;;3.55;1.05;;;24.20;94.30;;;;;;4991055;28;20603;-87
2023/07/18 12:29:38;;;;;;;3.00;0.90;;;24.40;93.00;;;;;;4991188;28;20172;-90
2023/07/18 12:32:05;;;;;;;3.38;1.00;;;24.50;93.70;;;;;;4990782;28;20596;-88
2023/07/18 12:34:31;;;;;;;2.45;0.80;;;24.40;92.40;;;;;;4991990;28;20238;-88
2023/07/18 12:36:57;;;;;;;4.30;0.90;;;24.60;94.40;;;;;;4991073;28;20172;-88
2023/07/18 12:39:22;;;;;;;4.25;0.90;;;24.90;92.30;;;;;;4991165;28;20168;-88
2023/07/18 12:41:49;;;;;;;3.15;1.00;;;24.90;91.40;;;;;;4991009;28;20168;-89
2023/07/18 12:44:20;;;;;;;3.00;0.93;;;24.80;91.90;;;;;;4991448;28;20643;-91
2023/07/18 12:46:49;;;;;;;2.85;0.82;;;24.60;91.80;;;;;;4992160;28;20199;-89
2023/07/18 12:49:15;;;;;;;2.85;1.10;;;24.40;91.90;;;;;;4990519;28;20267;-90